Time;durP1;ratioP1;P1;durP2;ratioP2;P2;SDS_P1;SDS_P2;PMS_P1;PMS_P2;Temp;Humidity;BMP_temperature;BMP_pressure;BME280_temperature;BME280_humidity;BME280_pressure;Samples;Min_cycle;Max_cycle;Signal;HPM_P1;HPM_P2
2023/11/10 00:01:40;;;;;;;;;;;;;;;;;;6289826;28;19917;-83
2023/11/10 00:04:40;;;;;;;;;;;;;;;;;;6273363;28;20012;-82
2023/11/10 00:07:40;;;;;;;;;;;;;;;;;;6274697;28;19921;-81
2023/11/10 00:10:40;;;;;;;;;;;;;;;;;;6274395;28;19912;-82
2023/11/10 00:13:40;;;;;;;;;;;;;;;;;;6277872;28;20337;-82
2023/11/10 00:16:40;;;;;;;;;;;;;;;;;;6279096;28;19917;-82
2023/11/10 00:19:40;;;;;;;;;;;;;;;;;;6272102;28;19947;-82
2023/11/10 00:22:41;;;;;;;;;;;;;;;;;;6276275;28;20278;-82
2023/11/10 00:25:41;;;;;;;;;;;;;;;;;;6274778;28;19916;-82
2023/11/10 00:28:41;;;;;;;;;;;;;;;;;;6274993;28;20000;-87
2023/11/10 00:31:43;;;;;;;;;;;;;;;;;;6273080;28;19919;-85
2023/11/10 00:34:43;;;;;;;;;;;;;;;;;;6278180;28;19920;-85
2023/11/10 00:37:43;;;;;;;;;;;;;;;;;;6289377;28;19924;-84
2023/11/10 00:40:44;;;;;;;;;;;;;;;;;;6272928;28;19955;-83
2023/11/10 00:43:44;;;;;;;;;;;;;;;;;;6272941;28;20007;-85
2023/11/10 00:46:44;;;;;;;;;;;;;;;;;;6274336;28;19921;-85
2023/11/10 00:49:44;;;;;;;;;;;;;;;;;;6273152;28;20019;-84
2023/11/10 00:52:44;;;;;;;;;;;;;;;;;;6273654;28;19923;-84
2023/11/10 00:55:44;;;;;;;;;;;;;;;;;;6273215;28;19931;-86
2023/11/10 00:58:45;;;;;;;;;;;;;;;;;;6275537;28;19956;-83
2023/11/10 01:01:45;;;;;;;;;;;;;;;;;;6290918;28;19924;-84
2023/11/10 01:04:45;;;;;;;;;;;;;;;;;;6285227;28;20303;-86
2023/11/10 01:07:45;;;;;;;;;;;;;;;;;;6269353;28;19928;-84
2023/11/10 01:10:45;;;;;;;;;;;;;;;;;;6270280;28;19996;-84
2023/11/10 01:13:45;;;;;;;;;;;;;;;;;;6272908;28;19917;-83
2023/11/10 01:16:45;;;;;;;;;;;;;;;;;;6271273;28;19923;-87
2023/11/10 01:19:45;;;;;;;;;;;;;;;;;;6270071;28;20408;-84
2023/11/10 01:22:45;;;;;;;;;;;;;;;;;;6274693;28;19916;-83
2023/11/10 01:25:46;;;;;;;;;;;;;;;;;;6270697;28;19923;-84
2023/11/10 01:28:46;;;;;;;;;;;;;;;;;;6275278;28;19920;-83
2023/11/10 01:31:47;;;;;;;;;;;;;;;;;;6273338;28;19913;-83
2023/11/10 01:34:47;;;;;;;;;;;;;;;;;;6273610;28;20404;-83
2023/11/10 01:37:47;;;;;;;;;;;;;;;;;;6273563;28;19995;-83
2023/11/10 01:40:48;;;;;;;;;;;;;;;;;;6276897;28;19920;-80
2023/11/10 01:43:48;;;;;;;;;;;;;;;;;;6273660;28;19971;-81
2023/11/10 01:46:48;;;;;;;;;;;;;;;;;;6277616;28;19913;-81
2023/11/10 01:49:48;;;;;;;;;;;;;;;;;;6274681;28;20435;-85
2023/11/10 01:52:48;;;;;;;;;;;;;;;;;;6274359;28;19928;-84
2023/11/10 01:55:48;;;;;;;;;;;;;;;;;;6272147;28;20404;-81
2023/11/10 01:58:48;;;;;;;;;;;;;;;;;;6276026;28;20385;-81
2023/11/10 02:01:49;;;;;;;;;;;;;;;;;;6277269;28;19920;-81
2023/11/10 02:04:49;;;;;;;;;;;;;;;;;;6301586;28;19912;-80
2023/11/10 02:07:49;;;;;;;;;;;;;;;;;;6277532;28;20649;-80
2023/11/10 02:10:49;;;;;;;;;;;;;;;;;;6276799;28;19976;-80
2023/11/10 02:13:49;;;;;;;;;;;;;;;;;;6274757;28;19955;-81
2023/11/10 02:16:49;;;;;;;;;;;;;;;;;;6279807;28;19962;-81
2023/11/10 02:19:49;;;;;;;;;;;;;;;;;;6292455;28;19916;-80
2023/11/10 02:22:49;;;;;;;;;;;;;;;;;;6278123;28;20270;-80
2023/11/10 02:25:52;;;;;;;;;;;;;;;;;;6294098;28;19970;-81
2023/11/10 02:28:53;;;;;;;;;;;;;;;;;;6277433;28;21287;-80
2023/11/10 02:31:54;;;;;;;;;;;;;;;;;;6277146;28;19912;-80
2023/11/10 02:34:55;;;;;;;;;;;;;;;;;;6278218;28;20313;-81
2023/11/10 02:37:55;;;;;;;;;;;;;;;;;;6275929;28;20427;-81
2023/11/10 02:40:55;;;;;;;;;;;;;;;;;;6278994;28;19920;-81
2023/11/10 02:43:55;;;;;;;;;;;;;;;;;;6283014;28;19916;-81
2023/11/10 02:46:55;;;;;;;;;;;;;;;;;;6281705;28;20005;-80
2023/11/10 02:49:55;;;;;;;;;;;;;;;;;;6279633;28;19985;-80
2023/11/10 02:52:56;;;;;;;;;;;;;;;;;;6283022;28;20377;-81
2023/11/10 02:55:56;;;;;;;;;;;;;;;;;;6283846;28;19965;-82
2023/11/10 02:58:56;;;;;;;;;;;;;;;;;;6283742;28;19917;-85
2023/11/10 03:01:56;;;;;;;;;;;;;;;;;;6286159;28;20380;-82
2023/11/10 03:04:56;;;;;;;;;;;;;;;;;;6281955;28;19927;-81
2023/11/10 03:07:56;;;;;;;;;;;;;;;;;;6279674;28;19920;-81
2023/11/10 03:10:57;;;;;;;;;;;;;;;;;;6279416;28;20015;-80
2023/11/10 03:13:57;;;;;;;;;;;;;;;;;;6280570;28;20380;-80
2023/11/10 03:16:57;;;;;;;;;;;;;;;;;;6277057;28;20019;-81
2023/11/10 03:19:57;;;;;;;;;;;;;;;;;;6294436;28;19970;-80
2023/11/10 03:22:57;;;;;;;;;;;;;;;;;;6296217;28;20299;-80
2023/11/10 03:25:57;;;;;;;;;;;;;;;;;;6286422;28;20008;-81
2023/11/10 03:28:57;;;;;;;;;;;;;;;;;;6297159;28;19974;-80
2023/11/10 03:31:58;;;;;;;;;;;;;;;;;;6290178;28;20088;-80
2023/11/10 03:34:58;;;;;;;;;;;;;;;;;;6276183;28;19921;-81
2023/11/10 03:37:58;;;;;;;;;;;;;;;;;;6280938;28;20446;-81
2023/11/10 03:40:59;;;;;;;;;;;;;;;;;;6290095;28;20004;-81
2023/11/10 03:43:59;;;;;;;;;;;;;;;;;;6277435;28;19959;-81
2023/11/10 03:46:59;;;;;;;;;;;;;;;;;;6274961;28;19923;-81
2023/11/10 03:49:59;;;;;;;;;;;;;;;;;;6272702;28;20317;-80
2023/11/10 03:53:00;;;;;;;;;;;;;;;;;;6274495;28;20273;-81
2023/11/10 03:56:00;;;;;;;;;;;;;;;;;;6293801;28;20105;-80
2023/11/10 03:59:04;;;;;;;;;;;;;;;;;;6275244;28;20297;-83
2023/11/10 04:02:04;;;;;;;;;;;;;;;;;;6278300;28;19923;-83
2023/11/10 04:05:04;;;;;;;;;;;;;;;;;;6274922;28;20004;-84
2023/11/10 04:08:04;;;;;;;;;;;;;;;;;;6278279;28;20503;-85
2023/11/10 04:11:05;;;;;;;;;;;;;;;;;;6276023;28;20009;-84
2023/11/10 04:14:05;;;;;;;;;;;;;;;;;;6273144;28;19928;-84
2023/11/10 04:17:06;;;;;;;;;;;;;;;;;;6276256;28;19924;-85
2023/11/10 04:20:06;;;;;;;;;;;;;;;;;;6279540;28;19925;-84
2023/11/10 04:23:07;;;;;;;;;;;;;;;;;;6271630;28;19921;-84
2023/11/10 04:26:07;;;;;;;;;;;;;;;;;;6271699;28;19925;-85
2023/11/10 04:29:09;;;;;;;;;;;;;;;;;;6273825;28;19928;-84
2023/11/10 04:32:11;;;;;;;;;;;;;;;;;;6277134;28;19917;-85
2023/11/10 04:35:12;;;;;;;;;;;;;;;;;;6275339;28;19917;-84
2023/11/10 04:38:12;;;;;;;;;;;;;;;;;;6275715;28;19928;-84
2023/11/10 04:41:12;;;;;;;;;;;;;;;;;;6291013;28;19908;-83
2023/11/10 04:44:12;;;;;;;;;;;;;;;;;;6276957;28;19959;-84
2023/11/10 04:47:13;;;;;;;;;;;;;;;;;;6305279;28;19913;-83
2023/11/10 04:50:13;;;;;;;;;;;;;;;;;;6296205;28;19909;-83
2023/11/10 04:53:13;;;;;;;;;;;;;;;;;;6284449;28;19913;-83
2023/11/10 04:56:14;;;;;;;;;;;;;;;;;;6322411;28;19916;-83
2023/11/10 04:59:14;;;;;;;;;;;;;;;;;;6296781;28;19935;-83
2023/11/10 05:02:14;;;;;;;;;;;;;;;;;;6295966;28;19912;-83
2023/11/10 05:05:14;;;;;;;;;;;;;;;;;;6296148;28;19934;-83
2023/11/10 05:08:14;;;;;;;;;;;;;;;;;;6296660;28;19909;-83
2023/11/10 05:11:14;;;;;;;;;;;;;;;;;;6296713;28;19913;-83
2023/11/10 05:14:14;;;;;;;;;;;;;;;;;;6286784;28;19924;-83
2023/11/10 05:17:15;;;;;;;;;;;;;;;;;;6272029;28;19924;-83
2023/11/10 05:20:16;;;;;;;;;;;;;;;;;;6293456;28;19920;-82
2023/11/10 05:23:16;;;;;;;;;;;;;;;;;;6296584;28;19955;-82
2023/11/10 05:26:16;;;;;;;;;;;;;;;;;;6311119;28;20020;-82
2023/11/10 05:29:16;;;;;;;;;;;;;;;;;;6296452;28;19923;-82
2023/11/10 05:32:16;;;;;;;;;;;;;;;;;;6287103;28;19936;-82
2023/11/10 05:35:16;;;;;;;;;;;;;;;;;;6271452;28;20293;-82
2023/11/10 05:38:16;;;;;;;;;;;;;;;;;;6284022;28;19935;-80
2023/11/10 05:41:17;;;;;;;;;;;;;;;;;;6299851;28;20035;-83
2023/11/10 05:44:17;;;;;;;;;;;;;;;;;;6276692;28;19921;-81
2023/11/10 05:47:18;;;;;;;;;;;;;;;;;;6277750;28;20250;-82
2023/11/10 05:50:18;;;;;;;;;;;;;;;;;;6276737;28;19932;-82
2023/11/10 05:53:19;;;;;;;;;;;;;;;;;;6281559;28;19958;-81
2023/11/10 05:56:19;;;;;;;;;;;;;;;;;;6281625;28;19964;-85
2023/11/10 05:59:21;;;;;;;;;;;;;;;;;;6279118;28;19981;-82
2023/11/10 06:02:22;;;;;;;;;;;;;;;;;;6277485;28;20012;-84
2023/11/10 06:05:23;;;;;;;;;;;;;;;;;;6274116;28;21986;-81
2023/11/10 06:08:24;;;;;;;;;;;;;;;;;;6278127;28;19927;-84
2023/11/10 06:11:24;;;;;;;;;;;;;;;;;;6276853;28;20370;-83
2023/11/10 06:14:24;;;;;;;;;;;;;;;;;;6279392;28;19917;-82
2023/11/10 06:17:26;;;;;;;;;;;;;;;;;;6279647;28;19924;-81
2023/11/10 06:20:26;;;;;;;;;;;;;;;;;;6276921;28;19952;-81
2023/11/10 06:23:26;;;;;;;;;;;;;;;;;;6279746;28;20395;-85
2023/11/10 06:26:28;;;;;;;;;;;;;;;;;;6276395;28;19924;-81
2023/11/10 06:29:28;;;;;;;;;;;;;;;;;;6276081;28;19913;-81
2023/11/10 06:32:28;;;;;;;;;;;;;;;;;;6272605;28;19920;-83
2023/11/10 06:35:28;;;;;;;;;;;;;;;;;;6279205;28;19920;-81
2023/11/10 06:38:28;;;;;;;;;;;;;;;;;;6277343;28;19920;-83
2023/11/10 06:41:28;;;;;;;;;;;;;;;;;;6277214;28;19913;-82
2023/11/10 06:44:28;;;;;;;;;;;;;;;;;;6294155;28;19912;-82
2023/11/10 06:47:28;;;;;;;;;;;;;;;;;;6272022;28;20657;-81
2023/11/10 06:50:30;;;;;;;;;;;;;;;;;;6274427;28;20349;-82
2023/11/10 06:53:30;;;;;;;;;;;;;;;;;;6275373;28;19916;-82
2023/11/10 06:56:31;;;;;;;;;;;;;;;;;;6277822;28;19920;-81
2023/11/10 06:59:31;;;;;;;;;;;;;;;;;;6272657;28;19920;-83
2023/11/10 07:02:31;;;;;;;;;;;;;;;;;;6281765;28;19966;-81
2023/11/10 07:05:31;;;;;;;;;;;;;;;;;;6273322;28;20000;-81
2023/11/10 07:08:31;;;;;;;;;;;;;;;;;;6273173;28;19974;-82
2023/11/10 07:11:32;;;;;;;;;;;;;;;;;;6276554;28;19921;-81
2023/11/10 07:14:32;;;;;;;;;;;;;;;;;;6275951;28;19921;-81
2023/11/10 07:17:32;;;;;;;;;;;;;;;;;;6276014;28;20385;-81
2023/11/10 07:20:32;;;;;;;;;;;;;;;;;;6277288;28;19987;-81
2023/11/10 07:23:33;;;;;;;;;;;;;;;;;;6277604;28;22410;-81
2023/11/10 07:26:33;;;;;;;;;;;;;;;;;;6277517;28;19931;-81
2023/11/10 07:29:36;;;;;;;;;;;;;;;;;;6272281;28;20048;-86
2023/11/10 07:32:36;;;;;;;;;;;;;;;;;;6279346;28;19923;-81
2023/11/10 07:35:36;;;;;;;;;;;;;;;;;;6291564;28;20565;-83
2023/11/10 07:38:39;;;;;;;;;;;;;;;;;;6275400;28;19979;-82
2023/11/10 07:41:39;;;;;;;;;;;;;;;;;;6273338;28;20717;-81
2023/11/10 07:44:39;;;;;;;;;;;;;;;;;;6280716;28;19917;-82
2023/11/10 07:47:39;;;;;;;;;;;;;;;;;;6273242;28;19920;-83
2023/11/10 07:50:39;;;;;;;;;;;;;;;;;;6272880;28;19913;-82
2023/11/10 07:53:39;;;;;;;;;;;;;;;;;;6274544;28;19971;-82
2023/11/10 07:56:39;;;;;;;;;;;;;;;;;;6282306;28;20358;-83
2023/11/10 07:59:40;;;;;;;;;;;;;;;;;;6292440;28;19965;-83
2023/11/10 08:02:40;;;;;;;;;;;;;;;;;;6276794;28;21994;-83
2023/11/10 08:05:41;;;;;;;;;;;;;;;;;;6271874;28;19955;-83
2023/11/10 08:08:42;;;;;;;;;;;;;;;;;;6274865;28;20042;-87
2023/11/10 08:11:43;;;;;;;;;;;;;;;;;;6275172;28;19917;-83
2023/11/10 08:14:43;;;;;;;;;;;;;;;;;;6274062;28;19913;-83
2023/11/10 08:17:43;;;;;;;;;;;;;;;;;;6274077;28;19913;-83
2023/11/10 08:20:44;;;;;;;;;;;;;;;;;;6278472;28;19921;-83
2023/11/10 08:23:44;;;;;;;;;;;;;;;;;;6271970;28;19916;-84
2023/11/10 08:26:44;;;;;;;;;;;;;;;;;;6273993;28;19924;-83
2023/11/10 08:29:44;;;;;;;;;;;;;;;;;;6276345;28;20003;-82
2023/11/10 08:32:44;;;;;;;;;;;;;;;;;;6271509;28;19912;-83
2023/11/10 08:35:45;;;;;;;;;;;;;;;;;;6275219;28;20161;-81
2023/11/10 08:38:45;;;;;;;;;;;;;;;;;;6273761;28;19936;-81
2023/11/10 08:41:45;;;;;;;;;;;;;;;;;;6272895;28;20062;-80
2023/11/10 08:44:47;;;;;;;;;;;;;;;;;;6273482;28;19913;-80
2023/11/10 08:47:47;;;;;;;;;;;;;;;;;;6276310;28;19966;-79
2023/11/10 08:50:47;;;;;;;;;;;;;;;;;;6289822;28;19913;-80
2023/11/10 08:53:47;;;;;;;;;;;;;;;;;;6280882;28;20321;-80
2023/11/10 08:56:47;;;;;;;;;;;;;;;;;;6284145;28;19932;-80
2023/11/10 08:59:48;;;;;;;;;;;;;;;;;;6289966;28;19956;-80
2023/11/10 09:02:49;;;;;;;;;;;;;;;;;;6279407;28;19951;-82
2023/11/10 09:05:49;;;;;;;;;;;;;;;;;;6286333;28;19912;-78
2023/11/10 09:08:49;;;;;;;;;;;;;;;;;;6303724;28;19959;-81
2023/11/10 09:11:50;;;;;;;;;;;;;;;;;;6296692;28;19974;-81
2023/11/10 09:14:50;;;;;;;;;;;;;;;;;;6287670;28;19935;-87
2023/11/10 09:17:51;;;;;;;;;;;;;;;;;;6274585;28;19912;-82
2023/11/10 09:20:51;;;;;;;;;;;;;;;;;;6276270;28;19967;-82
2023/11/10 09:23:51;;;;;;;;;;;;;;;;;;6280616;28;19924;-83
2023/11/10 09:26:51;;;;;;;;;;;;;;;;;;6283932;28;19920;-82
2023/11/10 09:29:52;;;;;;;;;;;;;;;;;;6277977;28;19920;-83
2023/11/10 09:32:52;;;;;;;;;;;;;;;;;;6283729;28;19913;-81
2023/11/10 09:35:52;;;;;;;;;;;;;;;;;;6276821;28;20015;-81
2023/11/10 09:38:53;;;;;;;;;;;;;;;;;;6283680;28;20416;-82
2023/11/10 09:41:53;;;;;;;;;;;;;;;;;;6280230;28;19919;-87
2023/11/10 09:44:53;;;;;;;;;;;;;;;;;;6275105;28;19924;-82
2023/11/10 09:47:54;;;;;;;;;;;;;;;;;;6282098;28;20027;-84
2023/11/10 09:50:54;;;;;;;;;;;;;;;;;;6277840;28;19919;-80
2023/11/10 09:53:54;;;;;;;;;;;;;;;;;;6280524;28;19917;-80
2023/11/10 09:56:54;;;;;;;;;;;;;;;;;;6273828;28;20621;-81
2023/11/10 09:59:54;;;;;;;;;;;;;;;;;;6279951;28;20284;-81
2023/11/10 10:02:54;;;;;;;;;;;;;;;;;;6277443;28;19999;-81
2023/11/10 10:05:55;;;;;;;;;;;;;;;;;;6276012;28;19916;-80
2023/11/10 10:08:55;;;;;;;;;;;;;;;;;;6273957;28;19917;-80
2023/11/10 10:11:55;;;;;;;;;;;;;;;;;;6276559;28;20340;-81
2023/11/10 10:14:55;;;;;;;;;;;;;;;;;;6273480;28;19924;-81
2023/11/10 10:17:55;;;;;;;;;;;;;;;;;;6277853;28;19935;-80
2023/11/10 10:20:55;;;;;;;;;;;;;;;;;;6273570;28;19913;-81
2023/11/10 10:23:56;;;;;;;;;;;;;;;;;;6277961;28;19921;-81
2023/11/10 10:26:56;;;;;;;;;;;;;;;;;;6276416;28;19966;-81
2023/11/10 10:29:58;;;;;;;;;;;;;;;;;;6292758;28;19912;-81
2023/11/10 10:32:58;;;;;;;;;;;;;;;;;;6283293;28;19947;-81
2023/11/10 10:35:59;;;;;;;;;;;;;;;;;;6270227;28;20572;-81
2023/11/10 10:38:59;;;;;;;;;;;;;;;;;;6274098;28;19924;-82
2023/11/10 10:41:59;;;;;;;;;;;;;;;;;;6280500;28;19928;-81
2023/11/10 10:44:59;;;;;;;;;;;;;;;;;;6274263;28;19948;-88
2023/11/10 10:48:00;;;;;;;;;;;;;;;;;;6278808;28;19939;-83
2023/11/10 10:51:00;;;;;;;;;;;;;;;;;;6275729;28;20243;-82
2023/11/10 10:54:02;;;;;;;;;;;;;;;;;;6276809;28;19921;-82
2023/11/10 10:57:03;;;;;;;;;;;;;;;;;;6277231;28;20281;-83
2023/11/10 11:00:06;;;;;;;;;;;;;;;;;;6277679;28;19917;-86
2023/11/10 11:03:06;;;;;;;;;;;;;;;;;;6276746;28;19952;-87
2023/11/10 11:06:06;;;;;;;;;;;;;;;;;;6276209;28;19939;-85
2023/11/10 11:09:06;;;;;;;;;;;;;;;;;;6277165;28;19920;-85
2023/11/10 11:12:08;;;;;;;;;;;;;;;;;;6283595;28;20365;-84
2023/11/10 11:15:08;;;;;;;;;;;;;;;;;;6292532;28;19921;-86
2023/11/10 11:18:08;;;;;;;;;;;;;;;;;;6288069;28;19959;-85
2023/11/10 11:21:08;;;;;;;;;;;;;;;;;;6281505;28;19913;-83
2023/11/10 11:24:09;;;;;;;;;;;;;;;;;;6300660;28;19916;-83
2023/11/10 11:27:09;;;;;;;;;;;;;;;;;;6276954;28;20250;-83
2023/11/10 11:30:10;;;;;;;;;;;;;;;;;;6276733;28;19913;-83
2023/11/10 11:33:11;;;;;;;;;;;;;;;;;;6271287;28;19920;-82
2023/11/10 11:36:12;;;;;;;;;;;;;;;;;;6291537;28;20369;-83
2023/11/10 11:39:19;;;;;;;;;;;;;;;;;;6274497;28;20267;-83
2023/11/10 11:42:19;;;;;;;;;;;;;;;;;;6272817;28;19917;-83
2023/11/10 11:45:20;;;;;;;;;;;;;;;;;;6271605;28;20011;-82
2023/11/10 11:48:20;;;;;;;;;;;;;;;;;;6279613;28;19920;-83
2023/11/10 11:51:21;;;;;;;;;;;;;;;;;;6276788;28;20050;-80
2023/11/10 11:54:21;;;;;;;;;;;;;;;;;;6274573;28;19913;-83
2023/11/10 11:57:21;;;;;;;;;;;;;;;;;;6275967;28;20011;-83
2023/11/10 12:00:21;;;;;;;;;;;;;;;;;;6271858;28;19964;-83
2023/11/10 12:03:22;;;;;;;;;;;;;;;;;;6272335;28;19912;-83
2023/11/10 12:06:22;;;;;;;;;;;;;;;;;;6270717;28;19960;-83
2023/11/10 12:09:24;;;;;;;;;;;;;;;;;;6272840;28;19955;-81
2023/11/10 12:12:24;;;;;;;;;;;;;;;;;;6270779;28;19912;-80
2023/11/10 12:15:25;;;;;;;;;;;;;;;;;;6273086;28;19925;-80
2023/11/10 12:18:25;;;;;;;;;;;;;;;;;;6287452;28;19913;-81
2023/11/10 12:21:27;;;;;;;;;;;;;;;;;;6273189;28;19928;-80
2023/11/10 12:24:30;;;;;;;;;;;;;;;;;;6275126;28;19971;-79
2023/11/10 12:27:30;;;;;;;;;;;;;;;;;;6286760;28;20022;-80
2023/11/10 12:30:31;;;;;;;;;;;;;;;;;;6270972;28;19917;-80
2023/11/10 12:33:32;;;;;;;;;;;;;;;;;;6269555;28;19939;-83
2023/11/10 12:36:32;;;;;;;;;;;;;;;;;;6276822;28;19956;-80
2023/11/10 12:39:33;;;;;;;;;;;;;;;;;;6273705;28;19935;-81
2023/11/10 12:42:33;;;;;;;;;;;;;;;;;;6273220;28;20406;-79
2023/11/10 12:45:33;;;;;;;;;;;;;;;;;;6285546;28;19952;-79
2023/11/10 12:48:33;;;;;;;;;;;;;;;;;;6271199;28;19941;-83
2023/11/10 12:51:35;;;;;;;;;;;;;;;;;;6272246;28;20320;-85
2023/11/10 12:54:35;;;;;;;;;;;;;;;;;;6272834;28;19913;-79
2023/11/10 12:57:35;;;;;;;;;;;;;;;;;;6270871;28;20038;-80
2023/11/10 13:00:38;;;;;;;;;;;;;;;;;;6269361;28;19921;-80
2023/11/10 13:03:38;;;;;;;;;;;;;;;;;;6289417;28;20349;-79
2023/11/10 13:06:38;;;;;;;;;;;;;;;;;;6289715;28;20011;-81
2023/11/10 13:09:38;;;;;;;;;;;;;;;;;;6273498;28;20381;-79
2023/11/10 13:12:38;;;;;;;;;;;;;;;;;;6291370;28;19913;-79
2023/11/10 13:15:38;;;;;;;;;;;;;;;;;;6295317;28;19921;-78
2023/11/10 13:18:39;;;;;;;;;;;;;;;;;;6282861;28;20300;-79
2023/11/10 13:21:39;;;;;;;;;;;;;;;;;;6295522;28;19947;-78
2023/11/10 13:24:39;;;;;;;;;;;;;;;;;;6296498;28;19919;-78
2023/11/10 13:27:39;;;;;;;;;;;;;;;;;;6297361;28;19909;-79
2023/11/10 13:30:40;;;;;;;;;;;;;;;;;;6302944;28;19912;-78
2023/11/10 13:33:40;;;;;;;;;;;;;;;;;;6292417;28;20365;-79
2023/11/10 13:36:41;;;;;;;;;;;;;;;;;;6287748;28;19928;-79
2023/11/10 13:39:41;;;;;;;;;;;;;;;;;;6289371;28;19920;-80
2023/11/10 13:42:41;;;;;;;;;;;;;;;;;;6270363;28;19913;-80
2023/11/10 13:45:41;;;;;;;;;;;;;;;;;;6280959;28;20364;-79
2023/11/10 13:48:45;;;;;;;;;;;;;;;;;;6275376;28;20374;-79
2023/11/10 13:51:45;;;;;;;;;;;;;;;;;;6270421;28;19920;-79
2023/11/10 13:54:46;;;;;;;;;;;;;;;;;;6270162;28;19967;-79
2023/11/10 13:57:46;;;;;;;;;;;;;;;;;;6273603;28;20003;-79
2023/11/10 14:00:49;;;;;;;;;;;;;;;;;;6273338;28;20019;-79
2023/11/10 14:03:49;;;;;;;;;;;;;;;;;;6277533;28;19964;-79
2023/11/10 14:06:50;;;;;;;;;;;;;;;;;;6273777;28;19917;-80
2023/11/10 14:09:52;;;;;;;;;;;;;;;;;;6274023;28;19912;-79
2023/11/10 14:12:53;;;;;;;;;;;;;;;;;;6277582;28;19917;-79
2023/11/10 14:15:53;;;;;;;;;;;;;;;;;;6281951;28;19947;-79
2023/11/10 14:18:54;;;;;;;;;;;;;;;;;;6289570;28;20019;-79
2023/11/10 14:21:54;;;;;;;;;;;;;;;;;;6283283;28;19951;-79
2023/11/10 14:24:55;;;;;;;;;;;;;;;;;;6297352;28;19966;-79
2023/11/10 14:27:55;;;;;;;;;;;;;;;;;;6269400;28;19913;-78
2023/11/10 14:30:56;;;;;;;;;;;;;;;;;;6284749;28;20289;-79
2023/11/10 14:33:56;;;;;;;;;;;;;;;;;;6277008;28;19916;-78
2023/11/10 14:36:59;;;;;;;;;;;;;;;;;;6286149;28;20132;-78
2023/11/10 14:39:59;;;;;;;;;;;;;;;;;;6299091;28;19927;-78
2023/11/10 14:43:02;;;;;;;;;;;;;;;;;;6279828;28;19913;-80
2023/11/10 14:46:07;;;;;;;;;;;;;;;;;;6293009;28;19920;-78
2023/11/10 14:49:09;;;;;;;;;;;;;;;;;;6275530;28;19927;-81
2023/11/10 14:52:10;;;;;;;;;;;;;;;;;;6291631;28;19920;-79
2023/11/10 14:55:11;;;;;;;;;;;;;;;;;;6281478;28;19931;-79
2023/11/10 14:58:11;;;;;;;;;;;;;;;;;;6278057;28;20341;-79
2023/11/10 15:01:13;;;;;;;;;;;;;;;;;;6281702;28;20006;-79
2023/11/10 15:04:15;;;;;;;;;;;;;;;;;;6272580;28;19913;-79
2023/11/10 15:07:15;;;;;;;;;;;;;;;;;;6274079;28;19913;-79
2023/11/10 15:10:18;;;;;;;;;;;;;;;;;;6290899;28;19912;-78
2023/11/10 15:13:19;;;;;;;;;;;;;;;;;;6298507;28;19948;-78
2023/11/10 15:16:19;;;;;;;;;;;;;;;;;;6296959;28;19927;-79
2023/11/10 15:19:19;;;;;;;;;;;;;;;;;;6281999;28;20278;-79
2023/11/10 15:22:19;;;;;;;;;;;;;;;;;;6289262;28;19920;-80
2023/11/10 15:25:22;;;;;;;;;;;;;;;;;;6276231;28;19923;-80
2023/11/10 15:28:26;;;;;;;;;;;;;;;;;;6274134;28;20373;-79
2023/11/10 15:31:31;;;;;;;;;;;;;;;;;;6273548;28;19923;-82
2023/11/10 15:34:34;;;;;;;;;;;;;;;;;;6270507;28;20771;-80
2023/11/10 15:37:41;;;;;;;;;;;;;;;;;;6274129;28;19971;-80
2023/11/10 15:40:42;;;;;;;;;;;;;;;;;;6295367;28;19967;-83
2023/11/10 15:43:42;;;;;;;;;;;;;;;;;;6294217;28;19913;-82
2023/11/10 15:46:42;;;;;;;;;;;;;;;;;;6277725;28;19940;-82
2023/11/10 15:49:43;;;;;;;;;;;;;;;;;;6277648;28;20357;-82
2023/11/10 15:52:43;;;;;;;;;;;;;;;;;;6268814;28;20463;-82
2023/11/10 15:55:43;;;;;;;;;;;;;;;;;;6277675;28;19920;-81
2023/11/10 15:58:44;;;;;;;;;;;;;;;;;;6271850;28;19920;-81
2023/11/10 16:01:44;;;;;;;;;;;;;;;;;;6274290;28;20286;-81
2023/11/10 16:04:45;;;;;;;;;;;;;;;;;;6287405;28;19916;-81
2023/11/10 16:07:45;;;;;;;;;;;;;;;;;;6295059;28;20405;-81
2023/11/10 16:10:45;;;;;;;;;;;;;;;;;;6297106;28;19912;-81
2023/11/10 16:13:45;;;;;;;;;;;;;;;;;;6295830;28;20367;-81
2023/11/10 16:16:45;;;;;;;;;;;;;;;;;;6294778;28;19923;-80
2023/11/10 16:19:45;;;;;;;;;;;;;;;;;;6292047;28;19947;-81
2023/11/10 16:22:46;;;;;;;;;;;;;;;;;;6298685;28;19919;-81
2023/11/10 16:25:49;;;;;;;;;;;;;;;;;;6307930;28;19920;-81
2023/11/10 16:28:50;;;;;;;;;;;;;;;;;;6295497;28;19912;-81
2023/11/10 16:31:50;;;;;;;;;;;;;;;;;;6297275;28;20373;-83
2023/11/10 16:34:50;;;;;;;;;;;;;;;;;;6296746;28;20268;-83
2023/11/10 16:37:50;;;;;;;;;;;;;;;;;;6286023;28;20277;-83
2023/11/10 16:40:51;;;;;;;;;;;;;;;;;;6274786;28;19921;-83
2023/11/10 16:43:53;;;;;;;;;;;;;;;;;;6273098;28;20003;-87
2023/11/10 16:46:53;;;;;;;;;;;;;;;;;;6277576;28;20014;-82
2023/11/10 16:49:54;;;;;;;;;;;;;;;;;;6313549;28;19912;-84
2023/11/10 16:52:54;;;;;;;;;;;;;;;;;;6284730;28;19919;-82
2023/11/10 16:55:54;;;;;;;;;;;;;;;;;;6280402;28;19921;-85
2023/11/10 16:58:54;;;;;;;;;;;;;;;;;;6282245;28;19919;-81
2023/11/10 17:01:58;;;;;;;;;;;;;;;;;;6288515;28;19913;-81
2023/11/10 17:04:58;;;;;;;;;;;;;;;;;;6296353;28;19951;-81
2023/11/10 17:07:58;;;;;;;;;;;;;;;;;;6296190;28;19931;-82
2023/11/10 17:10:59;;;;;;;;;;;;;;;;;;6293934;28;20319;-83
2023/11/10 17:13:59;;;;;;;;;;;;;;;;;;6300695;28;20030;-84
2023/11/10 17:17:01;;;;;;;;;;;;;;;;;;6272456;28;20391;-81
2023/11/10 17:20:01;;;;;;;;;;;;;;;;;;6289728;28;19909;-82
2023/11/10 17:23:01;;;;;;;;;;;;;;;;;;6295982;28;19919;-82
2023/11/10 17:26:03;;;;;;;;;;;;;;;;;;6296819;28;19960;-88
2023/11/10 17:29:04;;;;;;;;;;;;;;;;;;6290341;28;19923;-79
2023/11/10 17:32:04;;;;;;;;;;;;;;;;;;6287626;28;19912;-79
2023/11/10 17:35:04;;;;;;;;;;;;;;;;;;6302335;28;19908;-84
2023/11/10 17:38:05;;;;;;;;;;;;;;;;;;6307958;28;19913;-81
2023/11/10 17:41:05;;;;;;;;;;;;;;;;;;6300324;28;19920;-81
2023/11/10 17:44:06;;;;;;;;;;;;;;;;;;6294805;28;20316;-85
2023/11/10 17:47:09;;;;;;;;;;;;;;;;;;6290263;28;19916;-83
2023/11/10 17:50:09;;;;;;;;;;;;;;;;;;6299906;28;20002;-84
2023/11/10 17:53:09;;;;;;;;;;;;;;;;;;6298439;28;19913;-84
2023/11/10 17:56:09;;;;;;;;;;;;;;;;;;6301924;28;19985;-83
2023/11/10 17:59:09;;;;;;;;;;;;;;;;;;6282012;28;19917;-84
2023/11/10 18:02:10;;;;;;;;;;;;;;;;;;6284217;28;19935;-91
2023/11/10 18:05:10;;;;;;;;;;;;;;;;;;6303231;28;19917;-92
2023/11/10 18:08:10;;;;;;;;;;;;;;;;;;6315276;28;19912;-92
2023/11/10 18:11:11;;;;;;;;;;;;;;;;;;6297343;28;20050;-83
2023/11/10 18:14:11;;;;;;;;;;;;;;;;;;6315964;28;19909;-82
2023/11/10 18:17:12;;;;;;;;;;;;;;;;;;6300693;28;20261;-82
2023/11/10 18:20:12;;;;;;;;;;;;;;;;;;6282754;28;20000;-82
2023/11/10 18:23:12;;;;;;;;;;;;;;;;;;6284571;28;19919;-83
2023/11/10 18:26:12;;;;;;;;;;;;;;;;;;6276930;28;19917;-83
2023/11/10 18:29:14;;;;;;;;;;;;;;;;;;6287569;28;19920;-83
2023/11/10 18:32:15;;;;;;;;;;;;;;;;;;6287251;28;19909;-83
2023/11/10 18:35:17;;;;;;;;;;;;;;;;;;6273616;28;19925;-83
2023/11/10 18:38:17;;;;;;;;;;;;;;;;;;6285303;28;19924;-83
2023/11/10 18:41:17;;;;;;;;;;;;;;;;;;6275743;28;20195;-83
2023/11/10 18:44:18;;;;;;;;;;;;;;;;;;6270319;28;20379;-84
2023/11/10 18:47:18;;;;;;;;;;;;;;;;;;6279899;28;19913;-83
2023/11/10 18:50:20;;;;;;;;;;;;;;;;;;6293155;28;20324;-83
2023/11/10 18:53:20;;;;;;;;;;;;;;;;;;6277440;28;19917;-82
2023/11/10 18:56:20;;;;;;;;;;;;;;;;;;6275985;28;19956;-83
2023/11/10 18:59:21;;;;;;;;;;;;;;;;;;6280478;28;19999;-83
2023/11/10 19:02:21;;;;;;;;;;;;;;;;;;6277731;28;19913;-83
2023/11/10 19:05:25;;;;;;;;;;;;;;;;;;6287188;28;19909;-83
2023/11/10 19:08:25;;;;;;;;;;;;;;;;;;6274521;28;20362;-82
2023/11/10 19:11:25;;;;;;;;;;;;;;;;;;6273203;28;19959;-82
2023/11/10 19:14:25;;;;;;;;;;;;;;;;;;6286680;28;19916;-82
2023/11/10 19:17:26;;;;;;;;;;;;;;;;;;6285340;28;20023;-82
2023/11/10 19:20:26;;;;;;;;;;;;;;;;;;6297393;28;20383;-84
2023/11/10 19:23:26;;;;;;;;;;;;;;;;;;6277054;28;19923;-85
2023/11/10 19:26:26;;;;;;;;;;;;;;;;;;6280328;28;20281;-83
2023/11/10 19:29:30;;;;;;;;;;;;;;;;;;6282012;28;19939;-82
2023/11/10 19:32:30;;;;;;;;;;;;;;;;;;6279358;28;20436;-82
2023/11/10 19:35:30;;;;;;;;;;;;;;;;;;6278311;28;19920;-79
2023/11/10 19:38:30;;;;;;;;;;;;;;;;;;6272782;28;19936;-80
2023/11/10 19:41:31;;;;;;;;;;;;;;;;;;6273969;28;19916;-80
2023/11/10 19:44:31;;;;;;;;;;;;;;;;;;6277966;28;19921;-80
2023/11/10 19:47:33;;;;;;;;;;;;;;;;;;6277714;28;20389;-80
2023/11/10 19:50:33;;;;;;;;;;;;;;;;;;6270944;28;19920;-79
2023/11/10 19:53:34;;;;;;;;;;;;;;;;;;6271097;28;19913;-80
2023/11/10 19:56:35;;;;;;;;;;;;;;;;;;6276562;28;20023;-80
2023/11/10 19:59:35;;;;;;;;;;;;;;;;;;6274899;28;20281;-80
2023/11/10 20:02:35;;;;;;;;;;;;;;;;;;6285766;28;19921;-79
2023/11/10 20:05:35;;;;;;;;;;;;;;;;;;6296498;28;19944;-82
2023/11/10 20:08:36;;;;;;;;;;;;;;;;;;6305316;28;20019;-83
2023/11/10 20:11:36;;;;;;;;;;;;;;;;;;6283089;28;19909;-83
2023/11/10 20:14:36;;;;;;;;;;;;;;;;;;6291400;28;19941;-82
2023/11/10 20:17:36;;;;;;;;;;;;;;;;;;6304272;28;19928;-82
2023/11/10 20:20:39;;;;;;;;;;;;;;;;;;6273977;28;20007;-85
2023/11/10 20:23:39;;;;;;;;;;;;;;;;;;6288417;28;20080;-84
2023/11/10 20:26:39;;;;;;;;;;;;;;;;;;6297391;28;19912;-85
2023/11/10 20:29:39;;;;;;;;;;;;;;;;;;6285015;28;19948;-85
2023/11/10 20:32:40;;;;;;;;;;;;;;;;;;6283628;28;19915;-84